Time;durP1;ratioP1;P1;durP2;ratioP2;P2;SDS_P1;SDS_P2;PMS_P1;PMS_P2;Temp;Humidity;BMP_temperature;BMP_pressure;BME280_temperature;BME280_humidity;BME280_pressure;Samples;Min_cycle;Max_cycle;Signal;HPM_P1;HPM_P2
2023/01/09 00:02:07;;;;;;;1.67;0.50;;;;;;;6.81;100.00;99197.06;5046569;28;20026;-83
2023/01/09 00:04:33;;;;;;;1.70;0.47;;;;;;;6.77;100.00;99182.91;5029787;28;20033;-82
2023/01/09 00:06:59;;;;;;;0.90;0.40;;;;;;;6.80;100.00;99182.59;5032671;28;20038;-82
2023/01/09 00:09:24;;;;;;;5.47;0.40;;;;;;;6.75;100.00;99178.91;5035381;28;20041;-82
2023/01/09 00:11:50;;;;;;;2.08;0.50;;;;;;;6.70;100.00;99179.41;5015341;28;20034;-82
2023/01/09 00:14:16;;;;;;;1.63;0.30;;;;;;;6.77;100.00;99188.06;5031989;28;20034;-82
2023/01/09 00:16:42;;;;;;;1.95;0.40;;;;;;;6.82;100.00;99185.00;5032562;28;20984;-82
2023/01/09 00:19:13;;;;;;;0.70;0.20;;;;;;;6.75;100.00;99178.91;5016592;28;20057;-81
2023/01/09 00:21:38;;;;;;;0.82;0.20;;;;;;;6.67;100.00;99182.34;5031358;28;20044;-81
2023/01/09 00:24:04;;;;;;;0.60;0.30;;;;;;;6.68;100.00;99183.16;5032117;28;20504;-81
2023/01/09 00:26:30;;;;;;;6.50;0.47;;;;;;;6.78;100.00;99179.38;5042646;28;20065;-81
2023/01/09 00:28:56;;;;;;;0.30;0.28;;;;;;;6.69;100.00;99182.97;5027648;28;20037;-80
2023/01/09 00:31:22;;;;;;;0.63;0.20;;;;;;;6.69;100.00;99187.34;5013812;28;20708;-80
2023/01/09 00:33:54;;;;;;;1.23;0.30;;;;;;;6.63;100.00;99196.53;5043375;28;20052;-80
2023/01/09 00:36:20;;;;;;;0.47;0.20;;;;;;;6.65;100.00;99193.78;5044649;28;20164;-79
2023/01/09 00:38:45;;;;;;;1.58;0.40;;;;;;;6.56;100.00;99195.59;5026121;28;20116;-81
2023/01/09 00:41:16;;;;;;;0.95;0.20;;;;;;;6.64;100.00;99195.56;5044135;28;20049;-80
2023/01/09 00:43:48;;;;;;;0.60;0.30;;;;;;;6.67;100.00;99195.22;5010100;28;20033;-81
2023/01/09 00:46:16;;;;;;;2.28;0.30;;;;;;;6.57;100.00;99202.34;5028314;28;20046;-80
2023/01/09 00:48:44;;;;;;;2.50;0.50;;;;;;;6.59;100.00;99208.13;5042725;28;20037;-79
2023/01/09 00:51:09;;;;;;;0.80;0.30;;;;;;;6.58;100.00;99211.69;5024732;28;20504;-80
2023/01/09 00:53:38;;;;;;;1.45;0.40;;;;;;;6.47;100.00;99212.84;5024582;28;20037;-80
2023/01/09 00:56:07;;;;;;;0.20;0.20;;;;;;;6.53;100.00;99216.53;5020974;28;20060;-80
2023/01/09 00:58:34;;;;;;;0.73;0.32;;;;;;;6.50;100.00;99214.28;5021811;28;20136;-80
2023/01/09 01:01:00;;;;;;;0.73;0.28;;;;;;;6.41;100.00;99216.13;5022784;28;20481;-79
2023/01/09 01:03:26;;;;;;;0.38;0.20;;;;;;;6.39;100.00;99224.00;5025932;28;20037;-79
2023/01/09 01:08:35;;;;;;;1.45;0.63;;;;;;;6.31;100.00;99231.75;5043372;28;20754;-80
2023/01/09 01:11:08;;;;;;;0.32;0.28;;;;;;;6.32;100.00;99235.13;5011401;28;20030;-80
2023/01/09 01:13:33;;;;;;;1.00;0.30;;;;;;;6.27;100.00;99242.53;5022583;28;20025;-80
2023/01/09 01:15:59;;;;;;;0.68;0.30;;;;;;;6.24;100.00;99230.81;5019333;28;21224;-80
2023/01/09 01:18:24;;;;;;;1.35;0.50;;;;;;;6.22;100.00;99230.97;5022953;28;20037;-80
2023/01/09 01:20:50;;;;;;;0.98;0.20;;;;;;;6.23;100.00;99235.16;5007008;28;20040;-80
2023/01/09 01:23:16;;;;;;;3.97;0.40;;;;;;;6.44;100.00;99241.50;5022004;28;20458;-80
2023/01/09 01:25:41;;;;;;;0.50;0.40;;;;;;;6.38;100.00;99242.97;5023383;28;20049;-80
2023/01/09 01:28:07;;;;;;;3.25;0.57;;;;;;;6.29;100.00;99238.03;5027151;28;20243;-80
2023/01/09 01:30:37;;;;;;;1.92;0.40;;;;;;;6.31;100.00;99242.06;5024662;28;20041;-80
2023/01/09 01:33:02;;;;;;;0.50;0.40;;;;;;;6.30;100.00;99247.38;5013036;28;20037;-80
2023/01/09 01:35:28;;;;;;;1.17;0.40;;;;;;;6.32;100.00;99246.22;5005126;28;20044;-80
2023/01/09 01:37:53;;;;;;;5.95;0.55;;;;;;;6.35;100.00;99247.69;5012371;28;20037;-80
2023/01/09 01:40:19;;;;;;;3.63;0.60;;;;;;;6.34;100.00;99246.84;5027431;28;20040;-79
2023/01/09 01:42:47;;;;;;;2.13;0.70;;;;;;;6.25;100.00;99250.44;5013684;28;20087;-79
2023/01/09 01:45:25;;;;;;;1.15;0.85;;;;;;;6.14;100.00;99254.19;5025894;28;20102;-80
2023/01/09 01:48:20;;;;;;;2.65;0.80;;;;;;;6.09;100.00;99247.91;5041318;28;20034;-80
2023/01/09 01:50:54;;;;;;;2.42;0.50;;;;;;;6.03;100.00;99250.16;5011975;28;20064;-80
2023/01/09 01:53:21;;;;;;;6.13;0.55;;;;;;;6.13;100.00;99257.69;5025868;28;20033;-79
2023/01/09 01:56:05;;;;;;;4.68;0.85;;;;;;;6.11;100.00;99264.78;5008862;28;20383;-79
2023/01/09 01:58:35;;;;;;;2.58;0.80;;;;;;;6.11;100.00;99259.63;5005806;28;20045;-79
2023/01/09 02:01:01;;;;;;;2.22;0.50;;;;;;;6.05;100.00;99262.88;5025793;28;20510;-80
2023/01/09 02:03:27;;;;;;;3.67;0.65;;;;;;;6.00;100.00;99260.78;5042547;28;20482;-79
2023/01/09 02:05:53;;;;;;;3.70;0.90;;;;;;;6.02;100.00;99266.56;5005558;28;20053;-79
2023/01/09 02:08:19;;;;;;;3.30;0.50;;;;;;;5.88;100.00;99266.38;5041873;28;20037;-78
2023/01/09 02:10:45;;;;;;;1.25;0.50;;;;;;;5.84;100.00;99268.50;5002250;28;20044;-78
2023/01/09 02:13:12;;;;;;;1.00;0.40;;;;;;;5.89;100.00;99263.66;5028586;28;20104;-81
2023/01/09 02:15:49;;;;;;;7.60;0.85;;;;;;;5.88;100.00;99268.97;5025047;28;20037;-79
2023/01/09 02:18:50;;;;;;;3.88;0.75;;;;;;;5.82;100.00;99273.81;5021688;28;20029;-79
2023/01/09 02:21:47;;;;;;;4.10;0.70;;;;;;;5.74;100.00;99273.00;5011475;28;20147;-80
2023/01/09 02:24:34;;;;;;;1.88;0.70;;;;;;;5.78;100.00;99279.44;5004985;28;20083;-79
2023/01/09 02:27:38;;;;;;;3.72;1.25;;;;;;;5.67;100.00;99285.72;5010804;28;20346;-79
2023/01/09 02:30:03;;;;;;;2.17;0.70;;;;;;;5.71;100.00;99286.19;5043493;28;20116;-81
2023/01/09 02:32:29;;;;;;;2.28;0.60;;;;;;;5.68;100.00;99289.88;5043549;28;20137;-80
2023/01/09 02:35:17;;;;;;;4.30;0.80;;;;;;;5.64;100.00;99289.41;5023942;28;20132;-79
2023/01/09 02:38:01;;;;;;;4.80;1.23;;;;;;;5.70;100.00;99295.66;5021300;28;20033;-80
2023/01/09 02:40:35;;;;;;;2.65;0.70;;;;;;;5.63;100.00;99294.69;5042882;28;20061;-79
2023/01/09 02:43:02;;;;;;;2.63;0.70;;;;;;;5.58;100.00;99295.19;5046463;28;20033;-79
2023/01/09 02:45:28;;;;;;;3.70;1.02;;;;;;;5.63;100.00;99295.53;5047313;28;20129;-79
2023/01/09 02:47:54;;;;;;;2.50;1.00;;;;;;;5.77;100.00;99288.91;5032559;28;20075;-79
2023/01/09 02:50:47;;;;;;;4.88;0.93;;;;;;;5.76;100.00;99296.78;5030633;28;20037;-81
2023/01/09 02:53:52;;;;;;;5.90;1.75;;;;;;;5.76;100.00;99297.59;5043937;28;20775;-78
2023/01/09 02:56:42;;;;;;;4.50;1.17;;;;;;;5.73;100.00;99297.94;5030361;28;20033;-79
2023/01/09 02:59:21;;;;;;;3.28;0.93;;;;;;;5.64;100.00;99301.47;5014719;28;20025;-79
2023/01/09 03:02:12;;;;;;;2.28;1.10;;;;;;;5.58;100.00;99302.91;5040695;28;20037;-79
2023/01/09 03:04:55;;;;;;;3.28;1.15;;;;;;;5.49;100.00;99293.56;5026229;28;20041;-79
2023/01/09 03:07:34;;;;;;;3.72;1.52;;;;;;;5.61;100.00;99286.34;5034850;28;20123;-79
2023/01/09 03:10:28;;;;;;;5.38;2.22;;;;;;;5.63;100.00;99285.22;5028229;28;20540;-79
2023/01/09 03:12:55;;;;;;;10.43;1.27;;;;;;;5.53;100.00;99294.84;5017704;28;20048;-79
2023/01/09 03:15:25;;;;;;;2.25;1.25;;;;;;;5.46;100.00;99299.84;5030475;28;20034;-78
2023/01/09 03:17:51;;;;;;;4.85;1.80;;;;;;;5.43;100.00;99296.78;5032001;28;20030;-79
2023/01/09 03:20:21;;;;;;;3.60;1.13;;;;;;;5.42;100.00;99302.88;5029650;28;20952;-79
2023/01/09 03:22:58;;;;;;;5.00;1.42;;;;;;;5.47;100.00;99298.88;5047792;28;20090;-79
2023/01/09 03:25:24;;;;;;;6.93;2.13;;;;;;;5.49;100.00;99298.72;5034893;28;20044;-79
2023/01/09 03:28:02;;;;;;;4.82;1.45;;;;;;;5.38;100.00;99306.72;5036938;28;20033;-79
2023/01/09 03:30:29;;;;;;;4.15;1.30;;;;;;;5.30;100.00;99309.31;5035820;28;20045;-79
2023/01/09 03:32:56;;;;;;;7.85;2.75;;;;;;;5.24;100.00;99308.16;5032224;28;20037;-78
2023/01/09 03:35:22;;;;;;;7.40;2.45;;;;;;;5.35;100.00;99307.03;5035265;28;20067;-78
2023/01/09 03:37:47;;;;;;;3.60;1.30;;;;;;;5.41;100.00;99303.84;5032737;28;20383;-81
2023/01/09 03:40:14;;;;;;;3.85;1.75;;;;;;;5.51;100.00;99304.50;5016347;28;20038;-80
2023/01/09 03:42:40;;;;;;;4.25;1.20;;;;;;;5.26;100.00;99298.53;5039231;28;20701;-79
2023/01/09 03:45:05;;;;;;;2.92;1.40;;;;;;;5.27;100.00;99310.41;5031020;28;20041;-79
2023/01/09 03:47:31;;;;;;;5.75;1.42;;;;;;;5.33;100.00;99296.94;5027605;28;20571;-81
2023/01/09 03:49:56;;;;;;;5.10;1.50;;;;;;;5.24;100.00;99308.97;5048462;28;20108;-79
2023/01/09 03:52:22;;;;;;;3.50;1.50;;;;;;;5.15;100.00;99304.75;5034983;28;20039;-79
2023/01/09 03:54:47;;;;;;;8.90;1.58;;;;;;;5.14;100.00;99310.88;5021625;28;20068;-78
2023/01/09 03:57:13;;;;;;;7.25;1.67;;;;;;;5.06;100.00;99318.53;5030025;28;20088;-79
2023/01/09 03:59:38;;;;;;;2.45;1.20;;;;;;;5.10;100.00;99313.91;5029631;28;20025;-79
2023/01/09 04:02:04;;;;;;;4.03;1.58;;;;;;;5.10;100.00;99322.41;5034081;28;20028;-79
2023/01/09 04:04:30;;;;;;;8.55;1.80;;;;;;;5.17;100.00;99318.25;5020064;28;20267;-79
2023/01/09 04:06:55;;;;;;;7.68;1.55;;;;;;;5.15;100.00;99320.19;5030887;28;20163;-79
2023/01/09 04:09:21;;;;;;;7.30;1.90;;;;;;;5.00;100.00;99322.53;5038255;28;20045;-79
2023/01/09 04:11:46;;;;;;;9.48;1.70;;;;;;;4.90;100.00;99332.16;5029361;28;20049;-79
2023/01/09 04:14:13;;;;;;;3.80;1.30;;;;;;;4.90;100.00;99333.91;5029829;28;20042;-79
2023/01/09 04:16:39;;;;;;;5.88;1.13;;;;;;;4.84;100.00;99338.72;5030074;28;20030;-78
2023/01/09 04:19:04;;;;;;;8.48;1.00;;;;;;;4.86;100.00;99334.22;5046707;28;20022;-79
2023/01/09 04:21:30;;;;;;;4.90;1.00;;;;;;;4.78;100.00;99331.59;5028488;28;20076;-79
2023/01/09 04:23:56;;;;;;;7.28;1.30;;;;;;;4.82;100.00;99326.97;5013543;28;20060;-79
2023/01/09 04:26:21;;;;;;;12.68;1.10;;;;;;;4.72;100.00;99321.16;5031217;28;20037;-79
2023/01/09 04:28:46;;;;;;;5.55;1.00;;;;;;;4.72;100.00;99326.28;5029673;28;20030;-79
2023/01/09 04:31:12;;;;;;;6.28;1.45;;;;;;;4.66;100.00;99345.69;5013348;28;20034;-79
2023/01/09 04:33:38;;;;;;;5.20;1.60;;;;;;;4.79;100.00;99338.38;5028810;28;20041;-79
2023/01/09 04:36:04;;;;;;;10.68;3.53;;;;;;;4.80;100.00;99340.00;5030524;28;20048;-78
2023/01/09 04:38:29;;;;;;;5.38;2.50;;;;;;;4.81;100.00;99341.59;5030001;28;20029;-79
2023/01/09 04:40:54;;;;;;;6.50;1.40;;;;;;;4.84;100.00;99336.16;5028721;28;20099;-79
2023/01/09 04:43:20;;;;;;;8.48;1.70;;;;;;;4.82;100.00;99350.91;5031682;28;20045;-79
2023/01/09 04:45:45;;;;;;;5.25;1.70;;;;;;;4.82;100.00;99343.22;5043918;28;20038;-79
2023/01/09 04:48:11;;;;;;;7.97;1.83;;;;;;;4.89;100.00;99348.50;5025957;28;20037;-79
2023/01/09 04:50:36;;;;;;;10.27;1.10;;;;;;;4.98;100.00;99351.94;5043909;28;20036;-79
2023/01/09 04:53:02;;;;;;;10.63;1.85;;;;;;;4.87;100.00;99347.88;5026902;28;20068;-79
2023/01/09 04:55:27;;;;;;;6.40;1.40;;;;;;;4.99;100.00;99348.38;5032629;28;20102;-79
2023/01/09 04:57:53;;;;;;;11.77;0.85;;;;;;;4.97;100.00;99356.28;5027961;28;20022;-79
2023/01/09 05:00:18;;;;;;;5.20;0.98;;;;;;;4.91;100.00;99354.31;5043527;28;20037;-79
2023/01/09 05:02:44;;;;;;;7.35;0.95;;;;;;;4.98;100.00;99357.06;5015622;28;20060;-80
2023/01/09 05:05:10;;;;;;;15.80;1.48;;;;;;;5.09;100.00;99356.78;5030129;28;20044;-79
2023/01/09 05:07:35;;;;;;;8.05;2.22;;;;;;;5.16;100.00;99350.06;5026218;28;20029;-78
2023/01/09 05:10:02;;;;;;;7.68;1.15;;;;;;;5.24;100.00;99351.84;5026771;28;20037;-78
2023/01/09 05:12:28;;;;;;;5.45;1.35;;;;;;;5.14;100.00;99353.75;5030509;28;20056;-78
2023/01/09 05:14:53;;;;;;;2.25;0.93;;;;;;;5.05;100.00;99355.50;5027597;28;20522;-79
2023/01/09 05:17:19;;;;;;;14.45;1.20;;;;;;;5.22;100.00;99354.59;5041348;28;20342;-79
2023/01/09 05:19:44;;;;;;;11.27;1.20;;;;;;;5.28;100.00;99358.28;5007979;28;20068;-79
2023/01/09 05:22:11;;;;;;;7.32;1.25;;;;;;;5.22;100.00;99362.28;5011167;28;22261;-79
2023/01/09 05:24:36;;;;;;;6.10;1.50;;;;;;;5.20;100.00;99359.06;5043870;28;20478;-79
2023/01/09 05:27:02;;;;;;;6.47;1.30;;;;;;;5.44;100.00;99360.09;5026369;28;20030;-79
2023/01/09 05:29:27;;;;;;;8.63;1.40;;;;;;;5.34;100.00;99365.38;5027902;28;20045;-78
2023/01/09 05:31:53;;;;;;;4.25;0.93;;;;;;;5.35;100.00;99368.75;5027005;28;20044;-80
2023/01/09 05:34:19;;;;;;;16.58;1.50;;;;;;;5.45;100.00;99366.84;5012345;28;20029;-78
2023/01/09 05:36:45;;;;;;;6.60;1.35;;;;;;;5.37;100.00;99365.06;5025966;28;20038;-78
2023/01/09 05:39:11;;;;;;;7.53;1.08;;;;;;;5.46;100.00;99373.59;5033067;28;20052;-78
2023/01/09 05:41:36;;;;;;;9.43;0.98;;;;;;;5.43;100.00;99372.16;5026707;28;20041;-79
2023/01/09 05:44:03;;;;;;;4.97;1.63;;;;;;;5.50;100.00;99367.19;5013075;28;20033;-78
2023/01/09 05:46:29;;;;;;;5.78;1.05;;;;;;;5.49;100.00;99357.06;5026074;28;20033;-78
2023/01/09 05:48:54;;;;;;;9.50;1.98;;;;;;;5.55;100.00;99364.94;5013052;28;20060;-78
2023/01/09 05:51:20;;;;;;;11.90;1.40;;;;;;;5.63;100.00;99370.09;5008722;28;20038;-79
2023/01/09 05:53:45;;;;;;;6.28;1.30;;;;;;;5.53;100.00;99369.44;5027012;28;20033;-79
2023/01/09 05:56:10;;;;;;;15.63;2.13;;;;;;;5.59;100.00;99370.56;5024103;28;20747;-79
2023/01/09 05:58:36;;;;;;;5.88;1.42;;;;;;;5.61;100.00;99366.06;5028551;28;20060;-78
2023/01/09 06:01:01;;;;;;;12.90;2.30;;;;;;;5.73;100.00;99372.53;5025818;28;20033;-78
2023/01/09 06:03:27;;;;;;;5.63;1.20;;;;;;;5.72;100.00;99370.91;5023570;28;20083;-79
2023/01/09 06:05:52;;;;;;;13.38;1.95;;;;;;;5.63;100.00;99377.81;5007256;28;20048;-81
2023/01/09 06:08:18;;;;;;;10.02;1.90;;;;;;;5.71;100.00;99373.63;5024978;28;20064;-78
2023/01/09 06:10:45;;;;;;;3.53;0.90;;;;;;;5.80;100.00;99370.09;5010422;28;20046;-78
2023/01/09 06:13:10;;;;;;;10.05;1.10;;;;;;;5.68;100.00;99377.31;5025298;28;20040;-78
2023/01/09 06:15:35;;;;;;;9.55;1.27;;;;;;;5.70;100.00;99372.03;5009485;28;20037;-79
2023/01/09 06:18:01;;;;;;;12.35;1.38;;;;;;;5.71;100.00;99371.88;5012524;28;20033;-78
2023/01/09 06:20:26;;;;;;;10.15;1.48;;;;;;;5.63;100.00;99379.56;5008167;28;20409;-79
2023/01/09 06:22:52;;;;;;;7.25;1.13;;;;;;;5.70;100.00;99367.69;5010797;28;20041;-78
2023/01/09 06:25:17;;;;;;;7.68;1.33;;;;;;;5.68;100.00;99361.91;5021216;28;20037;-78
2023/01/09 06:27:43;;;;;;;6.53;1.27;;;;;;;5.63;100.00;99377.81;5026758;28;20148;-79
2023/01/09 06:30:09;;;;;;;6.00;2.08;;;;;;;5.66;100.00;99368.97;5009197;28;20033;-78
2023/01/09 06:32:35;;;;;;;8.38;1.65;;;;;;;5.62;100.00;99381.34;5026013;28;20045;-78
2023/01/09 06:35:00;;;;;;;7.63;1.40;;;;;;;5.84;100.00;99374.78;5016675;28;20042;-78
2023/01/09 06:37:25;;;;;;;7.03;1.30;;;;;;;5.90;100.00;99375.13;5024145;28;20026;-78
2023/01/09 06:39:53;;;;;;;6.93;1.50;;;;;;;5.93;100.00;99370.44;5023749;28;20044;-78
2023/01/09 06:42:18;;;;;;;8.60;1.90;;;;;;;6.05;100.00;99370.97;5026429;28;20386;-79
2023/01/09 06:44:44;;;;;;;7.07;0.93;;;;;;;6.03;99.63;99371.13;5026816;28;20122;-79
2023/01/09 06:47:09;;;;;;;10.57;1.23;;;;;;;6.01;99.60;99360.19;5024411;28;20118;-79
2023/01/09 06:49:34;;;;;;;7.20;1.10;;;;;;;6.01;99.36;99367.09;5027573;28;20095;-78
2023/01/09 06:52:04;;;;;;;11.27;1.10;;;;;;;5.90;99.65;99370.75;5030249;28;20037;-79
2023/01/09 06:54:30;;;;;;;11.43;1.17;;;;;;;5.96;99.87;99369.34;5016990;28;20103;-79
2023/01/09 06:56:55;;;;;;;9.18;1.33;;;;;;;6.12;98.07;99371.09;5027517;28;20021;-78
2023/01/09 06:59:21;;;;;;;6.30;1.60;;;;;;;6.20;97.71;99359.03;5023231;28;20041;-78
2023/01/09 07:01:46;;;;;;;9.10;1.42;;;;;;;6.10;97.97;99371.25;5028878;28;20034;-77
2023/01/09 07:04:12;;;;;;;8.52;2.30;;;;;;;6.13;97.91;99368.38;5026445;28;20030;-79
2023/01/09 07:06:37;;;;;;;14.57;2.53;;;;;;;6.15;98.32;99368.22;5024582;28;20034;-78
2023/01/09 07:09:04;;;;;;;5.68;2.08;;;;;;;6.14;98.36;99356.31;5008218;28;20706;-79
2023/01/09 07:11:30;;;;;;;11.98;1.95;;;;;;;6.09;98.68;99363.72;5026971;28;20355;-79
2023/01/09 07:13:56;;;;;;;9.57;1.98;;;;;;;6.11;98.35;99352.28;5025556;28;20037;-78
2023/01/09 07:16:21;;;;;;;18.30;1.35;;;;;;;6.22;97.68;99364.84;5013542;28;20037;-79
2023/01/09 07:18:47;;;;;;;13.57;1.50;;;;;;;6.21;97.58;99350.34;5027603;28;20044;-78
2023/01/09 07:21:12;;;;;;;6.97;1.25;;;;;;;6.21;97.55;99362.41;5006461;28;20044;-78
2023/01/09 07:23:38;;;;;;;10.63;1.58;;;;;;;6.29;97.65;99352.13;5025552;28;20117;-79
2023/01/09 07:26:03;;;;;;;8.52;1.30;;;;;;;6.31;96.13;99354.50;5038460;28;20048;-81
2023/01/09 07:28:29;;;;;;;5.07;1.13;;;;;;;6.24;96.71;99352.59;5027225;28;20040;-77
2023/01/09 07:30:54;;;;;;;9.18;1.50;;;;;;;6.23;97.68;99358.72;5026327;28;20033;-80
2023/01/09 07:33:20;;;;;;;8.05;1.42;;;;;;;6.23;97.68;99366.44;5044072;28;20570;-80
2023/01/09 07:35:45;;;;;;;7.57;1.45;;;;;;;6.27;97.65;99358.38;5032834;28;20037;-79
2023/01/09 07:38:11;;;;;;;9.57;1.40;;;;;;;6.38;97.21;99366.56;5034703;28;20037;-78
2023/01/09 07:40:37;;;;;;;15.15;1.30;;;;;;;6.23;96.78;99369.03;5029803;28;20040;-78
2023/01/09 07:43:02;;;;;;;9.38;1.63;;;;;;;6.43;94.89;99366.09;5045310;28;20123;-79
2023/01/09 07:45:28;;;;;;;12.18;1.55;;;;;;;6.50;95.24;99371.38;5013941;28;20107;-78
2023/01/09 07:47:53;;;;;;;8.68;1.73;;;;;;;6.43;95.05;99371.25;5030259;28;20025;-77
2023/01/09 07:50:19;;;;;;;6.60;1.17;;;;;;;6.35;95.98;99369.50;5026526;28;20045;-79
2023/01/09 07:52:45;;;;;;;11.48;3.03;;;;;;;6.44;96.21;99365.09;5046454;28;20033;-78
2023/01/09 07:55:11;;;;;;;12.20;2.20;;;;;;;6.51;94.81;99365.28;5025922;28;20156;-78
2023/01/09 07:57:36;;;;;;;8.27;1.27;;;;;;;6.43;94.73;99371.25;5045224;28;20114;-78
2023/01/09 08:00:05;;;;;;;12.57;1.58;;;;;;;6.47;94.97;99369.94;5030619;28;20144;-78
2023/01/09 08:02:36;;;;;;;10.18;2.00;;;;;;;6.54;94.80;99367.53;5029820;28;20048;-78
2023/01/09 08:05:03;;;;;;;13.45;1.35;;;;;;;6.44;95.11;99375.41;5030202;28;20906;-78
2023/01/09 08:07:29;;;;;;;15.23;1.40;;;;;;;6.55;94.61;99371.69;5029357;28;20037;-78
2023/01/09 08:09:54;;;;;;;18.80;1.50;;;;;;;6.48;94.66;99386.19;5028315;28;20041;-78
2023/01/09 08:12:19;;;;;;;11.95;1.67;;;;;;;6.52;95.10;99387.50;5015416;28;20260;-78
2023/01/09 08:14:45;;;;;;;10.43;1.17;;;;;;;6.46;96.17;99385.56;5027943;28;20514;-78
2023/01/09 08:17:10;;;;;;;8.23;1.40;;;;;;;6.46;96.23;99394.09;5029276;28;20433;-79
2023/01/09 08:19:36;;;;;;;11.60;1.30;;;;;;;6.53;95.92;99394.25;5027782;28;20551;-79
2023/01/09 08:22:02;;;;;;;5.00;1.05;;;;;;;6.60;94.73;99390.03;5013417;28;20079;-77
2023/01/09 08:24:28;;;;;;;7.22;1.08;;;;;;;6.76;93.45;99396.91;5014386;28;20033;-79
2023/01/09 08:26:54;;;;;;;8.23;1.92;;;;;;;6.74;93.42;99407.41;5032698;28;20036;-80
2023/01/09 08:29:21;;;;;;;6.65;1.10;;;;;;;6.66;93.88;99412.56;5017832;28;20025;-79
2023/01/09 08:31:46;;;;;;;4.70;0.80;;;;;;;6.73;93.74;99417.88;5029913;28;20040;-79
2023/01/09 08:34:12;;;;;;;11.43;1.20;;;;;;;6.65;94.25;99423.03;5034176;28;20033;-80
2023/01/09 08:36:37;;;;;;;11.50;1.88;;;;;;;6.60;94.33;99426.09;5049649;28;20044;-79
2023/01/09 08:39:03;;;;;;;7.55;1.02;;;;;;;6.62;93.76;99426.75;5030974;28;20029;-78
2023/01/09 08:47:05;;;;;;;7.53;1.05;;;;;;;6.71;93.43;99435.28;5031324;28;20041;-80
2023/01/09 08:49:36;;;;;;;6.88;0.93;;;;;;;6.86;93.19;99436.19;5017098;28;20033;-78
2023/01/09 08:52:02;;;;;;;6.40;0.90;;;;;;;6.71;93.70;99445.56;5033376;28;20398;-79
2023/01/09 08:54:28;;;;;;;8.57;1.20;;;;;;;6.78;92.91;99457.63;5047933;28;20444;-77
2023/01/09 08:56:53;;;;;;;8.15;0.93;;;;;;;6.76;93.19;99454.44;5015924;28;20035;-79
2023/01/09 08:59:19;;;;;;;8.68;1.55;;;;;;;6.85;93.05;99459.56;5033386;28;20040;-79
2023/01/09 09:01:44;;;;;;;8.98;1.25;;;;;;;6.88;93.17;99465.19;5049747;28;20053;-79
2023/01/09 09:04:09;;;;;;;7.07;1.00;;;;;;;6.77;94.30;99470.69;5034736;28;20051;-78
2023/01/09 09:06:35;;;;;;;4.32;0.95;;;;;;;6.85;94.10;99475.00;5030054;28;20038;-79
2023/01/09 09:09:05;;;;;;;7.03;1.55;;;;;;;6.78;94.22;99473.09;5033099;28;20041;-79
2023/01/09 09:11:34;;;;;;;8.73;1.00;;;;;;;7.01;93.96;99473.22;5038246;28;20045;-80
2023/01/09 09:13:59;;;;;;;7.75;1.10;;;;;;;6.89;94.58;99474.50;5017440;28;20037;-79
2023/01/09 09:16:26;;;;;;;9.68;1.23;;;;;;;6.91;94.51;99482.09;5039140;28;20410;-79
2023/01/09 09:18:52;;;;;;;9.32;2.00;;;;;;;7.03;93.62;99478.19;5031945;28;20025;-80
2023/01/09 09:21:19;;;;;;;9.43;1.00;;;;;;;7.12;92.83;99487.53;5032117;28;20514;-78
2023/01/09 09:23:44;;;;;;;9.45;1.77;;;;;;;7.19;92.68;99483.28;5015113;28;20034;-77
2023/01/09 09:26:10;;;;;;;7.75;1.25;;;;;;;7.21;93.13;99483.97;5033434;28;20556;-79
2023/01/09 09:28:35;;;;;;;10.60;1.30;;;;;;;7.20;92.67;99484.13;5034364;28;20479;-79
2023/01/09 09:31:04;;;;;;;8.05;1.40;;;;;;;7.19;93.29;99488.44;5017911;28;20039;-78
2023/01/09 09:33:30;;;;;;;6.40;0.90;;;;;;;7.22;92.81;99479.59;5014272;28;20504;-77
2023/01/09 09:35:57;;;;;;;9.20;1.23;;;;;;;7.32;91.99;99481.97;5019272;28;20041;-79
2023/01/09 09:38:23;;;;;;;11.32;2.17;;;;;;;7.25;91.93;99492.13;5033280;28;20044;-79
2023/01/09 09:44:52;;;;;;;5.80;1.15;;;;;;;7.13;92.65;99503.78;5045680;28;20033;-79
2023/01/09 09:47:44;;;;;;;6.47;1.20;;;;;;;7.05;93.07;99508.97;5049049;28;20065;-78
2023/01/09 09:50:41;;;;;;;8.88;1.05;;;;;;;7.18;92.42;99517.00;5047533;28;20067;-79
2023/01/09 09:53:16;;;;;;;13.32;1.77;;;;;;;7.18;92.41;99525.53;5037381;28;20045;-78
2023/01/09 09:55:44;;;;;;;7.70;1.20;;;;;;;7.19;92.73;99516.00;5032096;28;20398;-79
2023/01/09 09:58:30;;;;;;;9.48;1.98;;;;;;;7.17;92.45;99526.47;5035937;28;20121;-80
2023/01/09 10:00:58;;;;;;;7.65;1.92;;;;;;;7.07;93.37;99535.38;5047353;28;20503;-78
2023/01/09 10:03:35;;;;;;;4.40;0.88;;;;;;;7.10;93.44;99545.34;5028045;28;20105;-77
2023/01/09 10:06:07;;;;;;;9.10;1.33;;;;;;;7.20;92.70;99553.72;5024924;28;20034;-79
2023/01/09 10:09:00;;;;;;;5.88;1.30;;;;;;;7.17;92.71;99549.69;5023217;28;20133;-79
2023/01/09 10:11:34;;;;;;;2.83;1.17;;;;;;;7.19;92.12;99552.09;5027392;28;20091;-78
2023/01/09 10:14:05;;;;;;;7.50;1.25;;;;;;;7.11;93.24;99567.59;5022261;28;20045;-80
2023/01/09 10:17:22;;;;;;;9.63;1.20;;;;;;;7.17;93.07;99557.41;5025667;28;20034;-79
2023/01/09 10:20:29;;;;;;;5.95;0.98;;;;;;;7.24;92.34;99559.38;4986564;28;20058;-77
2023/01/09 10:23:10;;;;;;;13.13;1.20;;;;;;;7.24;92.50;99554.22;4986891;28;20506;-79
2023/01/09 10:25:44;;;;;;;3.47;0.85;;;;;;;7.16;93.31;99565.34;5021864;28;20072;-80
2023/01/09 10:28:43;;;;;;;9.63;2.13;;;;;;;7.21;92.33;99561.31;5041947;28;20459;-80
2023/01/09 10:31:23;;;;;;;10.90;1.08;;;;;;;7.18;92.64;99560.81;5028693;28;20069;-79
2023/01/09 10:34:12;;;;;;;3.83;1.55;;;;;;;7.14;93.06;99557.78;5044598;28;20030;-79
2023/01/09 10:36:50;;;;;;;5.35;0.82;;;;;;;7.25;92.92;99563.53;5029848;28;20405;-80
2023/01/09 10:39:51;;;;;;;3.88;0.90;;;;;;;7.30;93.04;99564.66;5030185;28;20405;-80
2023/01/09 10:42:25;;;;;;;4.30;0.80;;;;;;;7.41;92.13;99558.34;5015501;28;20053;-80
2023/01/09 10:44:58;;;;;;;4.65;0.70;;;;;;;7.45;91.35;99564.78;5026620;28;20117;-79
2023/01/09 10:47:31;;;;;;;6.70;1.10;;;;;;;7.53;91.38;99569.13;5043372;28;20159;-80
2023/01/09 10:49:58;;;;;;;5.32;0.80;;;;;;;7.58;91.20;99564.28;5028596;28;20063;-80
2023/01/09 10:52:43;;;;;;;6.43;1.00;;;;;;;7.68;90.17;99561.50;5031352;28;20034;-78
2023/01/09 10:55:43;;;;;;;6.57;1.08;;;;;;;7.59;89.50;99555.53;5026701;28;20037;-79
2023/01/09 10:58:28;;;;;;;7.13;1.08;;;;;;;7.53;90.44;99569.13;5048834;28;20028;-76
2023/01/09 11:00:55;;;;;;;11.63;1.77;;;;;;;7.62;89.92;99559.59;5024663;28;20045;-79
2023/01/09 11:03:22;;;;;;;6.25;1.15;;;;;;;7.71;89.62;99568.91;5030981;28;20041;-79
2023/01/09 11:05:52;;;;;;;11.98;1.00;;;;;;;7.76;88.51;99575.19;5028621;28;20036;-80
2023/01/09 11:08:29;;;;;;;5.25;1.20;;;;;;;7.78;88.34;99577.59;5045909;28;20075;-79
2023/01/09 11:10:57;;;;;;;4.57;1.27;;;;;;;7.83;88.11;99571.91;5031884;28;20383;-79
2023/01/09 11:13:29;;;;;;;5.53;0.95;;;;;;;7.81;88.27;99572.06;5029830;28;20124;-80
2023/01/09 11:16:17;;;;;;;17.00;1.30;;;;;;;7.77;88.32;99575.97;5029307;28;20099;-79
2023/01/09 11:18:57;;;;;;;5.30;0.90;;;;;;;7.67;88.98;99581.34;5033471;28;20036;-79
2023/01/09 11:21:38;;;;;;;12.13;1.45;;;;;;;7.78;88.69;99580.97;5032416;28;20168;-77
2023/01/09 11:24:26;;;;;;;4.60;1.08;;;;;;;7.63;88.69;99590.38;5032062;28;20033;-80
2023/01/09 11:27:12;;;;;;;9.27;2.03;;;;;;;7.67;88.49;99588.28;5030834;28;20045;-79
2023/01/09 11:29:38;;;;;;;4.18;0.80;;;;;;;7.64;87.69;99598.91;5021635;28;20057;-79
2023/01/09 11:32:04;;;;;;;2.67;0.60;;;;;;;7.56;87.12;99592.81;5031240;28;20055;-78
2023/01/09 11:34:34;;;;;;;6.10;0.80;;;;;;;7.55;87.28;99605.88;5031679;28;20036;-80
2023/01/09 11:37:32;;;;;;;4.38;0.68;;;;;;;7.57;86.72;99617.66;5046280;28;20470;-79
2023/01/09 11:39:59;;;;;;;11.55;2.42;;;;;;;7.53;86.11;99612.97;5045716;28;20545;-78
2023/01/09 11:45:22;;;;;;;4.53;0.45;;;;;;;7.51;86.04;99617.50;5046915;28;20079;-79
2023/01/09 11:47:47;;;;;;;5.43;1.02;;;;;;;7.38;86.59;99611.06;5047707;28;20034;-80
2023/01/09 11:50:22;;;;;;;4.07;0.90;;;;;;;7.45;86.15;99620.72;5013924;28;20029;-79
2023/01/09 11:53:17;;;;;;;4.50;0.90;;;;;;;7.51;85.77;99628.59;5048757;28;20052;-78
2023/01/09 11:55:44;;;;;;;6.15;0.82;;;;;;;7.47;86.29;99622.16;5027941;28;20061;-79
2023/01/09 11:58:18;;;;;;;3.47;1.05;;;;;;;7.49;86.37;99627.16;5036000;28;20133;-78
2023/01/09 12:01:06;;;;;;;9.07;1.30;;;;;;;7.58;85.55;99631.34;5021486;28;20440;-81
2023/01/09 12:03:57;;;;;;;5.22;0.90;;;;;;;7.46;86.41;99632.66;5011143;28;20084;-80
2023/01/09 12:06:41;;;;;;;3.53;0.80;;;;;;;7.46;86.08;99637.81;5049088;28;20041;-79